createdAt,value
2018-08-30T00:00:53.273Z,6.17
2018-08-30T00:03:20.441Z,6.47
2018-08-30T00:05:47.530Z,6.17
2018-08-30T00:08:14.736Z,7.53
2018-08-30T00:10:41.949Z,7.00
2018-08-30T00:13:09.093Z,6.73
2018-08-30T00:15:36.226Z,6.77
2018-08-30T00:18:03.404Z,7.13
2018-08-30T00:20:30.521Z,7.13
2018-08-30T00:22:57.830Z,7.10
2018-08-30T00:25:25.035Z,7.00
2018-08-30T00:27:52.229Z,7.23
2018-08-30T00:30:19.332Z,9.93
2018-08-30T00:32:46.428Z,11.10
2018-08-30T00:35:13.601Z,12.03
2018-08-30T00:37:40.689Z,11.57
2018-08-30T00:40:07.829Z,13.30
2018-08-30T00:42:34.926Z,7.93
2018-08-30T00:45:02.068Z,9.53
2018-08-30T00:47:29.162Z,9.33
2018-08-30T00:49:56.299Z,9.20
2018-08-30T00:52:23.405Z,8.47
2018-08-30T00:54:50.523Z,9.30
2018-08-30T00:57:18.092Z,9.87
2018-08-30T00:59:45.452Z,10.97
2018-08-30T01:02:12.557Z,8.70
2018-08-30T01:04:39.697Z,8.60
2018-08-30T01:07:06.836Z,8.40
2018-08-30T01:09:34.105Z,9.13
2018-08-30T01:12:01.246Z,8.40
2018-08-30T01:14:28.419Z,9.20
2018-08-30T01:16:55.551Z,8.97
2018-08-30T01:19:22.706Z,9.43
2018-08-30T01:21:49.900Z,9.30
2018-08-30T01:24:17.118Z,10.30
2018-08-30T01:26:44.419Z,10.03
2018-08-30T01:29:11.594Z,10.37
2018-08-30T01:31:38.759Z,10.67
2018-08-30T01:34:05.889Z,10.73
2018-08-30T01:36:33.052Z,12.13
2018-08-30T01:39:00.187Z,12.80
2018-08-30T01:41:27.338Z,12.27
2018-08-30T01:43:54.481Z,12.60
2018-08-30T01:46:21.610Z,14.30
2018-08-30T01:48:48.700Z,13.43
2018-08-30T01:51:15.840Z,14.87
2018-08-30T01:53:42.944Z,15.87
2018-08-30T01:56:10.049Z,13.73
2018-08-30T01:58:37.171Z,15.03
2018-08-30T02:01:04.449Z,13.70
2018-08-30T02:03:31.620Z,13.87
2018-08-30T02:05:58.766Z,13.40
2018-08-30T02:08:25.958Z,13.30
2018-08-30T02:10:53.145Z,14.00
2018-08-30T02:13:20.279Z,14.23
2018-08-30T02:15:47.402Z,13.60
2018-08-30T02:18:14.574Z,13.87
2018-08-30T02:20:41.689Z,14.87
2018-08-30T02:23:08.880Z,12.97
2018-08-30T02:25:35.979Z,12.43
2018-08-30T02:28:03.123Z,13.10
2018-08-30T02:30:30.208Z,18.23
2018-08-30T02:32:57.330Z,13.80
2018-08-30T02:35:24.441Z,15.10
2018-08-30T02:37:51.574Z,12.60
2018-08-30T02:40:18.666Z,13.37
2018-08-30T02:42:45.849Z,14.97
2018-08-30T02:45:12.968Z,12.73
2018-08-30T02:47:40.079Z,11.97
2018-08-30T02:50:07.194Z,12.67
2018-08-30T02:52:34.486Z,16.10
2018-08-30T02:55:01.638Z,14.83
2018-08-30T02:57:28.779Z,15.73
2018-08-30T02:59:55.901Z,14.33
2018-08-30T03:02:23.094Z,15.57
2018-08-30T03:04:50.229Z,16.53
2018-08-30T03:07:17.320Z,15.20
2018-08-30T03:09:44.456Z,14.10
2018-08-30T03:12:11.559Z,14.67
2018-08-30T03:14:38.682Z,15.13
2018-08-30T03:17:05.781Z,16.20
2018-08-30T03:19:32.932Z,17.70
2018-08-30T03:22:00.117Z,15.70
2018-08-30T03:24:27.267Z,17.47
2018-08-30T03:26:54.416Z,15.37
2018-08-30T03:29:21.626Z,16.53
2018-08-30T03:31:48.725Z,14.03
2018-08-30T03:34:16.513Z,19.93
2018-08-30T03:36:43.688Z,18.80
2018-08-30T03:39:10.828Z,17.13
2018-08-30T03:41:37.964Z,18.90
2018-08-30T03:44:05.081Z,16.20
2018-08-30T03:46:32.182Z,16.00
2018-08-30T03:48:59.298Z,17.17
2018-08-30T03:51:26.433Z,17.80
2018-08-30T03:53:53.534Z,17.73
2018-08-30T03:56:20.646Z,19.20
2018-08-30T03:58:47.751Z,17.27
2018-08-30T04:01:14.884Z,19.03
2018-08-30T04:03:42.160Z,20.00
2018-08-30T04:06:09.362Z,19.10
2018-08-30T04:08:36.512Z,19.93
2018-08-30T04:11:03.671Z,19.20
2018-08-30T04:13:30.803Z,19.03
2018-08-30T04:15:57.970Z,17.70
2018-08-30T04:18:25.118Z,19.30
2018-08-30T04:20:52.232Z,19.07
2018-08-30T04:23:19.386Z,17.60
2018-08-30T04:25:46.498Z,21.70
2018-08-30T04:28:13.656Z,19.17
2018-08-30T04:30:40.759Z,18.07
2018-08-30T04:33:07.918Z,18.40
2018-08-30T04:35:35.106Z,19.20
2018-08-30T04:38:02.281Z,18.17
2018-08-30T04:40:29.437Z,18.37
2018-08-30T04:42:56.678Z,18.40
2018-08-30T04:45:23.801Z,19.50
2018-08-30T04:47:50.970Z,18.13
2018-08-30T04:50:18.214Z,20.33
2018-08-30T04:52:45.281Z,22.00
2018-08-30T04:55:12.408Z,20.23
2018-08-30T04:57:39.547Z,20.23
2018-08-30T05:00:06.722Z,20.23
2018-08-30T05:02:33.885Z,18.77
2018-08-30T05:05:01.091Z,18.80
2018-08-30T05:07:29.022Z,21.40
2018-08-30T05:09:56.245Z,16.63
2018-08-30T05:12:23.353Z,17.80
2018-08-30T05:14:50.513Z,19.50
2018-08-30T05:17:17.629Z,20.07
2018-08-30T05:19:44.757Z,20.67
2018-08-30T05:22:11.939Z,20.00
2018-08-30T05:24:39.086Z,18.43
2018-08-30T05:27:06.266Z,17.27
2018-08-30T05:29:33.599Z,17.17
2018-08-30T05:32:00.730Z,18.07
2018-08-30T05:34:27.876Z,17.43
2018-08-30T05:36:55.685Z,15.60
2018-08-30T05:39:22.874Z,17.53
2018-08-30T05:41:50.014Z,18.87
2018-08-30T05:44:17.167Z,17.50
2018-08-30T05:46:44.416Z,16.17
2018-08-30T05:49:11.538Z,15.30
2018-08-30T05:51:38.782Z,22.37
2018-08-30T05:54:06.072Z,16.70
2018-08-30T05:56:33.265Z,22.87
2018-08-30T05:59:00.394Z,25.07
2018-08-30T06:01:27.645Z,15.53
2018-08-30T06:03:54.818Z,13.90
2018-08-30T06:06:22.015Z,15.57
2018-08-30T06:08:49.158Z,14.60
2018-08-30T06:11:16.313Z,13.27
2018-08-30T06:13:43.435Z,16.00
2018-08-30T06:16:10.641Z,12.77
2018-08-30T06:18:38.191Z,14.63
2018-08-30T06:21:05.708Z,14.23
2018-08-30T06:23:32.881Z,15.00
2018-08-30T06:26:00.060Z,13.33
2018-08-30T06:28:28.016Z,15.13
2018-08-30T06:30:55.529Z,13.83
2018-08-30T06:33:22.679Z,13.23
2018-08-30T06:38:23.789Z,14.10
2018-08-30T06:40:51.284Z,12.50
2018-08-30T06:43:18.717Z,13.53
2018-08-30T06:45:45.966Z,12.50
2018-08-30T06:48:13.520Z,11.90
2018-08-30T06:50:42.480Z,15.27
2018-08-30T06:53:09.695Z,11.70
2018-08-30T06:55:36.850Z,14.30
2018-08-30T06:58:03.995Z,13.10
2018-08-30T07:00:31.167Z,13.23
2018-08-30T07:02:58.357Z,12.20
2018-08-30T07:05:26.085Z,11.40
2018-08-30T07:07:53.414Z,12.73
2018-08-30T07:10:20.882Z,14.90
2018-08-30T07:12:48.107Z,12.33
2018-08-30T07:15:15.314Z,12.30
2018-08-30T07:17:42.610Z,16.13
2018-08-30T07:20:09.807Z,15.83
2018-08-30T07:22:37.460Z,10.67
2018-08-30T07:25:04.988Z,16.30
2018-08-30T07:27:32.169Z,11.57
2018-08-30T07:29:59.302Z,11.23
2018-08-30T07:32:26.801Z,10.83
2018-08-30T07:34:54.097Z,11.17
2018-08-30T07:37:21.134Z,12.20
2018-08-30T07:39:48.292Z,11.57
2018-08-30T07:42:15.455Z,12.53
2018-08-30T07:44:42.615Z,11.80
2018-08-30T07:47:09.817Z,12.03
2018-08-30T07:49:36.894Z,12.70
2018-08-30T07:52:04.029Z,15.77
2018-08-30T07:54:31.284Z,14.23
2018-08-30T07:56:58.370Z,9.90
2018-08-30T07:59:25.903Z,11.93
2018-08-30T08:01:53.061Z,9.80
2018-08-30T08:04:20.869Z,11.90
2018-08-30T08:06:48.037Z,10.40
2018-08-30T08:09:15.338Z,9.50
2018-08-30T08:11:42.459Z,10.10
2018-08-30T08:14:09.743Z,11.20
2018-08-30T08:16:36.884Z,14.10
2018-08-30T08:19:04.815Z,11.03
2018-08-30T08:21:31.981Z,11.80
2018-08-30T08:23:59.220Z,14.40
2018-08-30T08:26:26.347Z,16.93
2018-08-30T08:28:53.823Z,12.00
2018-08-30T08:31:21.122Z,14.93
2018-08-30T08:33:48.194Z,11.07
2018-08-30T08:36:15.369Z,10.67
2018-08-30T08:38:42.735Z,14.83
2018-08-30T08:41:09.973Z,9.53
2018-08-30T08:43:37.096Z,12.23
2018-08-30T08:46:04.252Z,12.10
2018-08-30T08:48:31.456Z,13.53
2018-08-30T08:50:58.633Z,12.83
2018-08-30T08:53:25.753Z,13.70
2018-08-30T08:55:52.876Z,11.73
2018-08-30T08:58:20.005Z,17.83
2018-08-30T09:00:47.128Z,11.83
2018-08-30T09:03:14.251Z,11.97
2018-08-30T09:05:41.474Z,10.90
2018-08-30T09:08:08.701Z,9.90
2018-08-30T09:10:35.901Z,12.80
2018-08-30T09:13:03.099Z,11.67
2018-08-30T09:15:30.345Z,13.80
2018-08-30T09:17:57.585Z,11.03
2018-08-30T09:20:24.723Z,14.40
2018-08-30T09:22:52.302Z,14.43
2018-08-30T09:25:19.671Z,11.70
2018-08-30T09:27:47.757Z,14.57
2018-08-30T09:30:14.990Z,13.20
2018-08-30T09:32:42.135Z,11.60
2018-08-30T09:35:09.308Z,14.73
2018-08-30T09:37:36.556Z,11.00
2018-08-30T09:40:03.722Z,16.10
2018-08-30T09:42:30.912Z,21.20
2018-08-30T09:44:58.072Z,16.97
2018-08-30T09:47:25.213Z,12.03
2018-08-30T09:49:52.525Z,15.87
2018-08-30T09:52:19.573Z,15.17
2018-08-30T09:54:46.713Z,13.50
2018-08-30T09:57:13.994Z,18.90
2018-08-30T09:59:41.039Z,12.67
2018-08-30T10:02:13.802Z,13.37
2018-08-30T10:04:41.071Z,18.00
2018-08-30T10:07:08.229Z,13.90
2018-08-30T10:09:35.452Z,16.10
2018-08-30T10:12:02.684Z,25.30
2018-08-30T10:14:30.848Z,14.57
2018-08-30T10:16:58.067Z,16.93
2018-08-30T10:19:25.206Z,16.50
2018-08-30T10:21:52.416Z,16.13
2018-08-30T10:24:19.611Z,13.20
2018-08-30T10:26:46.757Z,15.47
2018-08-30T10:29:13.885Z,15.43
2018-08-30T10:31:41.122Z,18.73
2018-08-30T10:34:08.211Z,13.67
2018-08-30T10:36:35.430Z,15.20
2018-08-30T10:39:04.368Z,15.30
2018-08-30T10:41:31.594Z,13.93
2018-08-30T10:43:58.824Z,12.80
2018-08-30T10:46:25.976Z,14.83
2018-08-30T10:48:53.106Z,14.50
2018-08-30T10:51:20.284Z,14.83
2018-08-30T10:53:47.509Z,15.83
2018-08-30T10:56:14.834Z,14.73
2018-08-30T10:58:42.876Z,14.97
2018-08-30T11:01:10.018Z,14.00
2018-08-30T11:03:37.332Z,14.20
2018-08-30T11:06:04.681Z,16.67
2018-08-30T11:08:31.945Z,13.33
2018-08-30T11:10:59.185Z,13.53
2018-08-30T11:13:26.425Z,16.10
2018-08-30T11:15:53.572Z,15.07
2018-08-30T11:18:20.791Z,13.93
2018-08-30T11:20:47.938Z,12.60
2018-08-30T11:23:15.120Z,16.87
2018-08-30T11:25:42.687Z,14.83
2018-08-30T11:28:10.159Z,10.87
2018-08-30T11:30:37.322Z,19.10
2018-08-30T11:33:04.738Z,12.40
2018-08-30T11:35:31.945Z,12.57
2018-08-30T11:37:59.147Z,14.43
2018-08-30T11:40:26.290Z,12.10
2018-08-30T11:42:53.482Z,11.13
2018-08-30T11:45:20.806Z,9.90
2018-08-30T11:47:47.945Z,10.63
2018-08-30T11:50:15.186Z,16.53
2018-08-30T11:52:42.400Z,12.23
2018-08-30T11:55:09.542Z,18.97
2018-08-30T11:57:37.959Z,11.67
2018-08-30T12:00:05.746Z,12.53
2018-08-30T12:02:33.137Z,9.70
2018-08-30T12:05:00.333Z,10.83
2018-08-30T12:07:27.588Z,10.53
2018-08-30T12:09:56.844Z,9.53
2018-08-30T12:12:22.562Z,11.33
2018-08-30T12:14:50.471Z,12.17
2018-08-30T12:17:17.736Z,11.50
2018-08-30T12:19:44.909Z,11.10
2018-08-30T12:22:12.394Z,10.83
2018-08-30T12:24:40.053Z,10.97
2018-08-30T12:27:07.292Z,12.53
2018-08-30T12:29:34.528Z,11.03
2018-08-30T12:32:03.387Z,11.60
2018-08-30T12:34:30.673Z,17.40
2018-08-30T12:36:57.813Z,12.60
2018-08-30T12:39:25.466Z,12.63
2018-08-30T12:41:52.909Z,12.97
2018-08-30T12:44:20.069Z,9.97
2018-08-30T12:46:47.319Z,10.37
2018-08-30T12:49:14.575Z,11.10
2018-08-30T12:51:42.605Z,10.30
2018-08-30T12:54:09.734Z,10.67
2018-08-30T12:56:36.881Z,12.37
2018-08-30T12:59:09.766Z,13.20
2018-08-30T13:01:36.905Z,13.50
2018-08-30T13:04:04.594Z,14.40
2018-08-30T13:06:32.141Z,14.47
2018-08-30T13:08:59.513Z,16.13
2018-08-30T13:11:26.598Z,10.73
2018-08-30T13:13:53.867Z,11.53
2018-08-30T13:16:21.411Z,12.77
2018-08-30T13:18:48.548Z,14.37
2018-08-30T13:21:15.890Z,11.20
2018-08-30T13:23:43.654Z,13.40
2018-08-30T13:26:11.324Z,11.07
2018-08-30T13:28:38.741Z,11.50
2018-08-30T13:31:06.007Z,12.00
2018-08-30T13:33:33.176Z,11.83
2018-08-30T13:36:00.598Z,11.43
2018-08-30T13:38:28.051Z,12.00
2018-08-30T13:40:55.295Z,14.00
2018-08-30T13:43:22.226Z,11.33
2018-08-30T13:45:49.407Z,10.33
2018-08-30T13:48:16.461Z,11.60
2018-08-30T13:50:43.913Z,14.60
2018-08-30T13:53:11.318Z,13.10
2018-08-30T13:55:38.595Z,10.47
2018-08-30T13:58:06.843Z,10.90
2018-08-30T14:00:34.129Z,12.53
2018-08-30T14:03:00.983Z,12.30
2018-08-30T14:05:28.094Z,11.20
2018-08-30T14:07:55.421Z,11.60
2018-08-30T14:10:23.056Z,11.90
2018-08-30T14:12:50.204Z,11.43
2018-08-30T14:15:17.478Z,11.47
2018-08-30T14:17:44.284Z,11.77
2018-08-30T14:20:11.521Z,12.50
2018-08-30T14:22:40.610Z,12.13
2018-08-30T14:25:09.273Z,10.30
2018-08-30T14:27:36.503Z,13.30
2018-08-30T14:30:03.787Z,11.83
2018-08-30T14:32:31.023Z,13.00
2018-08-30T14:34:58.230Z,10.90
2018-08-30T14:37:25.740Z,13.27
2018-08-30T14:39:53.473Z,12.00
2018-08-30T14:42:20.756Z,12.43
2018-08-30T14:44:48.091Z,12.30
2018-08-30T14:47:15.264Z,15.43
2018-08-30T14:49:42.412Z,10.60
2018-08-30T14:52:09.656Z,14.40
2018-08-30T14:54:36.872Z,11.00
2018-08-30T14:57:04.319Z,14.83
2018-08-30T14:59:31.541Z,14.37
2018-08-30T15:01:58.662Z,16.63
2018-08-30T15:04:25.876Z,15.17
2018-08-30T15:06:53.049Z,13.30
2018-08-30T15:09:20.411Z,12.23
2018-08-30T15:11:47.696Z,21.00
2018-08-30T15:14:14.954Z,14.63
2018-08-30T15:16:42.200Z,12.03
2018-08-30T15:19:11.303Z,12.87
2018-08-30T15:21:38.455Z,13.33
2018-08-30T15:24:05.712Z,12.20
2018-08-30T15:26:32.939Z,18.23
2018-08-30T15:29:00.172Z,14.13
2018-08-30T15:31:27.388Z,14.13
2018-08-30T15:33:54.676Z,12.60
2018-08-30T15:36:22.221Z,13.10
2018-08-30T15:38:49.314Z,14.30
2018-08-30T15:41:16.623Z,13.93
2018-08-30T15:43:43.877Z,12.90
2018-08-30T15:46:11.381Z,15.50
2018-08-30T15:48:38.781Z,15.37
2018-08-30T15:51:05.911Z,20.83
2018-08-30T15:53:33.347Z,14.93
2018-08-30T15:56:01.193Z,13.97
2018-08-30T15:58:28.374Z,15.90
2018-08-30T16:00:55.546Z,11.60
2018-08-30T16:03:22.710Z,13.23
2018-08-30T16:05:49.830Z,11.30
2018-08-30T16:08:17.010Z,12.40
2018-08-30T16:10:44.134Z,12.03
2018-08-30T16:13:11.566Z,11.53
2018-08-30T16:15:38.630Z,11.27
2018-08-30T16:20:40.191Z,12.63
2018-08-30T16:23:14.589Z,11.27
2018-08-30T16:25:42.073Z,12.33
2018-08-30T16:28:10.091Z,11.70
2018-08-30T16:30:37.300Z,11.83
2018-08-30T16:33:04.389Z,13.60
2018-08-30T16:35:31.591Z,12.80
2018-08-30T16:37:58.790Z,14.50
2018-08-30T16:40:25.954Z,13.40
2018-08-30T16:42:53.145Z,11.60
2018-08-30T16:45:20.341Z,9.93
2018-08-30T16:47:47.544Z,10.57
2018-08-30T16:50:14.763Z,12.63
2018-08-30T16:52:42.099Z,12.90
2018-08-30T16:55:09.331Z,11.70
2018-08-30T16:57:36.571Z,11.97
2018-08-30T17:00:03.851Z,11.90
2018-08-30T17:02:31.006Z,12.70
2018-08-30T17:04:58.758Z,11.10
2018-08-30T17:07:26.010Z,11.23
2018-08-30T17:09:53.170Z,13.17
2018-08-30T17:12:20.530Z,16.63
2018-08-30T17:14:47.759Z,13.37
2018-08-30T17:17:15.073Z,15.77
2018-08-30T17:19:42.114Z,12.20
2018-08-30T17:22:09.477Z,12.47
2018-08-30T17:24:36.624Z,13.00
2018-08-30T17:27:03.877Z,14.23
2018-08-30T17:29:31.044Z,14.47
2018-08-30T17:31:58.202Z,13.80
2018-08-30T17:34:25.398Z,11.17
2018-08-30T17:36:52.692Z,15.80
2018-08-30T17:39:19.852Z,13.43
2018-08-30T17:41:47.094Z,10.50
2018-08-30T17:44:14.758Z,12.63
2018-08-30T17:46:41.948Z,12.43
2018-08-30T17:49:09.135Z,12.10
2018-08-30T17:51:36.376Z,10.80
2018-08-30T17:54:03.582Z,10.57
2018-08-30T17:56:30.819Z,9.83
2018-08-30T17:59:00.366Z,9.87
2018-08-30T18:01:27.649Z,10.10
2018-08-30T18:03:54.707Z,11.43
2018-08-30T18:06:21.853Z,10.73
2018-08-30T18:08:49.235Z,10.90
2018-08-30T18:11:16.246Z,10.80
2018-08-30T18:13:43.422Z,13.13
2018-08-30T18:16:10.545Z,10.30
2018-08-30T18:18:37.781Z,11.70
2018-08-30T18:21:04.854Z,11.97
2018-08-30T18:23:32.171Z,11.07
2018-08-30T18:25:59.343Z,12.00
2018-08-30T18:28:26.527Z,10.23
2018-08-30T18:30:53.654Z,12.10
2018-08-30T18:33:20.838Z,13.77
2018-08-30T18:35:47.994Z,11.80
2018-08-30T18:38:15.595Z,12.40
2018-08-30T18:40:42.876Z,10.53
2018-08-30T18:43:10.077Z,10.47
2018-08-30T18:45:37.251Z,15.30
2018-08-30T18:48:04.485Z,13.03
2018-08-30T18:50:31.691Z,11.00
2018-08-30T18:52:58.875Z,10.90
2018-08-30T18:55:26.037Z,11.00
2018-08-30T18:57:53.295Z,12.07
2018-08-30T19:00:20.572Z,11.90
2018-08-30T19:02:48.108Z,12.30
2018-08-30T19:05:15.310Z,10.67
2018-08-30T19:07:42.458Z,12.10
2018-08-30T19:10:09.993Z,11.50
2018-08-30T19:12:37.238Z,11.77
2018-08-30T19:15:10.036Z,12.37
2018-08-30T19:17:42.985Z,13.37
2018-08-30T19:20:10.181Z,11.60
2018-08-30T19:22:37.317Z,10.30
2018-08-30T19:25:10.142Z,11.40
2018-08-30T19:27:37.314Z,11.50
2018-08-30T19:30:10.252Z,12.77
2018-08-30T19:32:37.403Z,15.60
2018-08-30T19:35:10.493Z,12.70
2018-08-30T19:37:37.691Z,12.07
2018-08-30T19:40:08.000Z,10.97
2018-08-30T19:42:35.326Z,11.90
2018-08-30T19:45:02.432Z,12.77
2018-08-30T19:47:29.627Z,15.63
2018-08-30T19:49:56.811Z,10.40
2018-08-30T19:52:24.057Z,13.67
2018-08-30T19:54:51.253Z,10.83
2018-08-30T19:57:18.516Z,14.93
2018-08-30T19:59:45.666Z,13.50
2018-08-30T20:02:12.817Z,12.87
2018-08-30T20:04:40.001Z,13.67
2018-08-30T20:07:07.155Z,14.50
2018-08-30T20:09:34.601Z,14.40
2018-08-30T20:12:01.796Z,14.17
2018-08-30T20:14:28.941Z,16.70
2018-08-30T20:16:56.120Z,12.50
2018-08-30T20:19:23.565Z,12.03
2018-08-30T20:21:50.727Z,13.40
2018-08-30T20:24:17.850Z,12.60
2018-08-30T20:26:45.188Z,10.63
2018-08-30T20:29:12.498Z,12.80
2018-08-30T20:31:39.669Z,9.87
2018-08-30T20:34:06.834Z,11.57
2018-08-30T20:36:34.023Z,10.53
2018-08-30T20:39:01.214Z,11.13
2018-08-30T20:41:28.454Z,10.83
2018-08-30T20:43:55.658Z,11.53
2018-08-30T20:46:22.852Z,10.93
2018-08-30T20:48:50.042Z,10.80
2018-08-30T20:51:17.183Z,9.80
2018-08-30T20:53:44.387Z,11.80
2018-08-30T20:56:11.585Z,12.10
2018-08-30T20:58:38.761Z,11.83
2018-08-30T21:01:05.874Z,11.30
2018-08-30T21:03:33.050Z,11.27
2018-08-30T21:06:00.372Z,10.70
2018-08-30T21:08:27.526Z,12.13
2018-08-30T21:10:54.665Z,10.47
2018-08-30T21:13:21.796Z,10.37
2018-08-30T21:15:49.033Z,13.50
2018-08-30T21:18:16.126Z,11.03
2018-08-30T21:20:43.274Z,11.00
2018-08-30T21:23:10.456Z,10.20
2018-08-30T21:25:37.598Z,12.57
2018-08-30T21:28:05.017Z,10.60
2018-08-30T21:30:32.278Z,11.27
2018-08-30T21:32:59.448Z,12.10
2018-08-30T21:35:26.689Z,10.40
2018-08-30T21:37:54.471Z,11.40
2018-08-30T21:40:21.642Z,11.80
2018-08-30T21:42:48.786Z,13.47
2018-08-30T21:45:16.085Z,13.20
2018-08-30T21:47:43.180Z,15.27
2018-08-30T21:50:10.376Z,11.37
2018-08-30T21:52:37.669Z,16.83
2018-08-30T21:55:05.110Z,14.60
2018-08-30T21:57:32.342Z,19.17
2018-08-30T21:59:59.505Z,15.00
2018-08-30T22:02:26.741Z,17.13
2018-08-30T22:04:53.828Z,13.80
2018-08-30T22:07:20.971Z,14.47
2018-08-30T22:09:48.146Z,12.63
2018-08-30T22:12:15.437Z,16.87
2018-08-30T22:14:42.588Z,12.47
2018-08-30T22:17:09.760Z,16.17
2018-08-30T22:19:36.890Z,12.73
2018-08-30T22:22:04.082Z,12.70
2018-08-30T22:24:31.220Z,13.13
2018-08-30T22:26:58.350Z,11.43
2018-08-30T22:29:25.612Z,12.43
2018-08-30T22:31:52.752Z,13.07
2018-08-30T22:34:19.888Z,13.10
2018-08-30T22:36:47.269Z,13.83
2018-08-30T22:39:14.542Z,12.33
2018-08-30T22:41:41.729Z,14.60
2018-08-30T22:44:08.956Z,12.40
2018-08-30T22:46:36.167Z,12.90
2018-08-30T22:49:03.437Z,10.80
2018-08-30T22:51:30.622Z,10.53
2018-08-30T22:53:57.810Z,14.97
2018-08-30T22:56:25.026Z,11.97
2018-08-30T22:58:52.292Z,13.00
2018-08-30T23:01:19.675Z,11.70
2018-08-30T23:03:46.822Z,24.20
2018-08-30T23:06:13.947Z,12.10
2018-08-30T23:08:41.085Z,15.53
2018-08-30T23:11:08.197Z,10.90
2018-08-30T23:13:35.396Z,11.70
2018-08-30T23:16:02.604Z,14.80
2018-08-30T23:18:29.759Z,14.57
2018-08-30T23:20:56.963Z,12.80
2018-08-30T23:23:24.077Z,15.43
2018-08-30T23:25:51.249Z,13.70
2018-08-30T23:28:18.395Z,16.63
2018-08-30T23:30:45.648Z,12.60
2018-08-30T23:33:12.793Z,11.23
2018-08-30T23:35:40.016Z,11.20
2018-08-30T23:38:07.442Z,14.50
2018-08-30T23:40:34.776Z,12.60
2018-08-30T23:43:01.899Z,12.60
2018-08-30T23:45:29.094Z,13.33
2018-08-30T23:47:56.201Z,12.93
2018-08-30T23:50:23.338Z,12.50
2018-08-30T23:52:50.444Z,13.00
2018-08-30T23:55:17.594Z,10.83
2018-08-30T23:57:56.494Z,11.00
